createdAt,value
2023-05-14T00:00:59.913Z,57.52
2023-05-14T00:01:59.951Z,58.81
2023-05-14T00:02:59.975Z,57.85
2023-05-14T00:04:00.092Z,60.91
2023-05-14T00:04:59.836Z,59.30
2023-05-14T00:05:59.844Z,59.30
2023-05-14T00:06:59.820Z,56.24
2023-05-14T00:07:59.826Z,55.91
2023-05-14T00:08:59.798Z,55.27
2023-05-14T00:09:59.770Z,58.49
2023-05-14T00:10:59.772Z,59.62
2023-05-14T00:11:59.754Z,54.30
2023-05-14T00:12:59.771Z,55.43
2023-05-14T00:13:59.731Z,53.33
2023-05-14T00:14:59.716Z,55.43
2023-05-14T00:15:59.726Z,57.20
2023-05-14T00:16:59.688Z,53.50
2023-05-14T00:17:59.705Z,54.95
2023-05-14T00:18:59.703Z,49.95
2023-05-14T00:19:59.657Z,54.14
2023-05-14T00:20:59.627Z,55.91
2023-05-14T00:21:59.644Z,56.40
2023-05-14T00:22:59.605Z,51.56
2023-05-14T00:23:59.633Z,56.88
2023-05-14T00:24:59.606Z,55.27
2023-05-14T00:25:59.603Z,55.75
2023-05-14T00:26:59.567Z,54.14
2023-05-14T00:27:59.588Z,57.52
2023-05-14T00:28:59.577Z,54.79
2023-05-14T00:29:59.529Z,53.66
2023-05-14T00:30:59.572Z,55.11
2023-05-14T00:31:59.526Z,57.04
2023-05-14T00:32:59.565Z,54.79
2023-05-14T00:33:59.505Z,55.43
2023-05-14T00:34:59.540Z,53.50
2023-05-14T00:35:59.484Z,56.07
2023-05-14T00:36:59.447Z,56.88
2023-05-14T00:37:59.446Z,54.79
2023-05-14T00:38:59.435Z,54.79
2023-05-14T00:39:59.458Z,60.59
2023-05-14T00:40:59.403Z,55.27
2023-05-14T00:41:59.408Z,56.72
2023-05-14T00:42:59.390Z,53.82
2023-05-14T00:43:59.372Z,55.91
2023-05-14T00:44:59.370Z,53.66
2023-05-14T00:45:59.410Z,54.30
2023-05-14T00:46:59.503Z,54.79
2023-05-14T00:47:59.359Z,56.40
2023-05-14T00:48:59.297Z,57.52
2023-05-14T00:49:59.295Z,56.40
2023-05-14T00:50:59.332Z,54.95
2023-05-14T00:51:59.271Z,51.88
2023-05-14T00:52:59.262Z,55.43
2023-05-14T00:53:59.258Z,59.14
2023-05-14T00:55:00.231Z,53.33
2023-05-14T00:55:59.265Z,54.79
2023-05-14T00:56:59.215Z,55.43
2023-05-14T00:57:59.204Z,52.53
2023-05-14T00:58:59.187Z,55.91
2023-05-14T00:59:59.170Z,57.20
2023-05-14T01:00:59.155Z,53.50
2023-05-14T01:01:59.194Z,55.43
2023-05-14T01:02:59.185Z,51.88
2023-05-14T01:03:59.288Z,52.85
2023-05-14T01:04:59.132Z,54.14
2023-05-14T01:05:59.109Z,54.95
2023-05-14T01:06:59.129Z,56.40
2023-05-14T01:07:59.302Z,52.85
2023-05-14T01:08:59.076Z,54.30
2023-05-14T01:09:59.058Z,54.79
2023-05-14T01:10:59.032Z,52.53
2023-05-14T01:11:59.108Z,58.17
2023-05-14T01:12:59.042Z,53.82
2023-05-14T01:13:59.017Z,55.91
2023-05-14T01:14:58.993Z,53.98
2023-05-14T01:15:59.050Z,56.56
2023-05-14T01:16:59.178Z,52.85
2023-05-14T01:17:59.039Z,55.43
2023-05-14T01:18:58.967Z,56.40
2023-05-14T01:19:58.943Z,54.30
2023-05-14T01:20:58.909Z,54.95
2023-05-14T01:21:58.957Z,54.30
2023-05-14T01:22:58.945Z,54.14
2023-05-14T01:23:58.894Z,58.49
2023-05-14T01:24:58.899Z,57.04
2023-05-14T01:25:58.852Z,56.40
2023-05-14T01:26:58.855Z,54.79
2023-05-14T01:27:58.881Z,56.40
2023-05-14T01:28:58.824Z,58.01
2023-05-14T01:29:58.828Z,57.85
2023-05-14T01:30:58.821Z,54.79
2023-05-14T01:31:58.822Z,56.40
2023-05-14T01:32:58.835Z,55.91
2023-05-14T01:33:58.793Z,58.33
2023-05-14T01:34:58.756Z,55.75
2023-05-14T01:35:58.808Z,54.30
2023-05-14T01:36:58.736Z,57.85
2023-05-14T01:37:58.706Z,54.46
2023-05-14T01:38:59.743Z,56.24
2023-05-14T01:39:58.687Z,56.88
2023-05-14T01:40:58.673Z,55.11
2023-05-14T01:41:58.679Z,57.20
2023-05-14T01:42:58.685Z,57.36
2023-05-14T01:43:58.678Z,56.07
2023-05-14T01:44:58.649Z,55.27
2023-05-14T01:45:58.673Z,55.91
2023-05-14T01:46:58.627Z,55.91
2023-05-14T01:47:58.678Z,56.07
2023-05-14T01:48:58.643Z,53.66
2023-05-14T01:49:58.641Z,55.11
2023-05-14T01:50:58.615Z,55.11
2023-05-14T01:51:58.635Z,56.24
2023-05-14T01:52:58.654Z,57.04
2023-05-14T01:53:58.614Z,56.56
2023-05-14T01:54:58.569Z,59.94
2023-05-14T01:55:58.601Z,58.33
2023-05-14T01:56:58.520Z,57.85
2023-05-14T01:57:58.481Z,58.49
2023-05-14T01:58:58.573Z,59.46
2023-05-14T01:59:58.461Z,56.07
2023-05-14T02:00:58.486Z,55.11
2023-05-14T02:01:58.649Z,55.91
2023-05-14T02:02:59.024Z,54.14
2023-05-14T02:03:58.464Z,54.14
2023-05-14T02:04:58.426Z,55.75
2023-05-14T02:05:58.391Z,53.33
2023-05-14T02:06:58.374Z,57.69
2023-05-14T02:07:58.358Z,52.85
2023-05-14T02:08:58.369Z,55.11
2023-05-14T02:09:58.357Z,55.43
2023-05-14T02:10:58.345Z,59.46
2023-05-14T02:11:58.814Z,58.65
2023-05-14T02:12:58.335Z,57.36
2023-05-14T02:13:58.324Z,56.40
2023-05-14T02:14:58.288Z,53.33
2023-05-14T02:15:58.401Z,53.33
2023-05-14T02:16:58.293Z,53.66
2023-05-14T02:17:58.261Z,60.91
2023-05-14T02:18:58.318Z,53.33
2023-05-14T02:19:58.239Z,54.30
2023-05-14T02:20:58.204Z,55.59
2023-05-14T02:21:58.200Z,55.43
2023-05-14T02:22:58.222Z,56.24
2023-05-14T02:23:58.209Z,55.43
2023-05-14T02:24:58.180Z,56.40
2023-05-14T02:25:58.378Z,57.20
2023-05-14T02:26:58.144Z,55.91
2023-05-14T02:27:58.115Z,56.88
2023-05-14T02:28:58.131Z,55.43
2023-05-14T02:29:58.161Z,57.69
2023-05-14T02:30:58.123Z,57.20
2023-05-14T02:31:58.106Z,58.01
2023-05-14T02:32:58.136Z,56.88
2023-05-14T02:33:58.078Z,59.62
2023-05-14T02:34:58.086Z,62.36
2023-05-14T02:35:58.057Z,59.78
2023-05-14T02:36:58.010Z,59.94
2023-05-14T02:37:58.015Z,58.97
2023-05-14T02:38:58.091Z,58.49
2023-05-14T02:39:57.997Z,59.46
2023-05-14T02:40:58.008Z,68.32
2023-05-14T02:41:57.954Z,67.03
2023-05-14T02:42:57.966Z,69.61
2023-05-14T02:43:57.931Z,69.77
2023-05-14T02:44:57.921Z,69.29
2023-05-14T02:45:57.954Z,67.51
2023-05-14T02:46:57.934Z,68.32
2023-05-14T02:47:57.958Z,68.64
2023-05-14T02:48:57.888Z,69.93
2023-05-14T02:49:57.874Z,66.87
2023-05-14T02:50:57.857Z,68.96
2023-05-14T02:51:57.897Z,68.64
2023-05-14T02:52:57.842Z,68.64
2023-05-14T02:53:57.815Z,70.25
2023-05-14T02:54:57.804Z,67.19
2023-05-14T02:55:57.807Z,69.13
2023-05-14T02:56:57.812Z,68.48
2023-05-14T02:57:57.773Z,67.03
2023-05-14T02:58:57.774Z,60.42
2023-05-14T02:59:57.742Z,59.46
2023-05-14T03:00:57.782Z,58.97
2023-05-14T03:01:57.743Z,60.10
2023-05-14T03:02:57.716Z,60.42
2023-05-14T03:03:57.706Z,59.46
2023-05-14T03:04:57.694Z,59.62
2023-05-14T03:05:57.686Z,62.52
2023-05-14T03:06:58.504Z,60.26
2023-05-14T03:07:57.644Z,59.94
2023-05-14T03:08:57.648Z,61.23
2023-05-14T03:09:57.639Z,61.23
2023-05-14T03:10:57.638Z,59.78
2023-05-14T03:11:57.624Z,60.42
2023-05-14T03:12:57.598Z,62.52
2023-05-14T03:13:57.576Z,62.84
2023-05-14T03:14:57.577Z,61.07
2023-05-14T03:15:57.574Z,60.91
2023-05-14T03:16:57.666Z,62.84
2023-05-14T03:17:57.548Z,59.14
2023-05-14T03:18:57.583Z,57.52
2023-05-14T03:19:57.505Z,60.42
2023-05-14T03:20:58.567Z,62.36
2023-05-14T03:21:57.468Z,61.55
2023-05-14T03:22:57.467Z,59.78
2023-05-14T03:23:57.492Z,60.10
2023-05-14T03:24:57.441Z,57.36
2023-05-14T03:25:57.442Z,56.40
2023-05-14T03:26:57.479Z,56.88
2023-05-14T03:27:57.406Z,57.04
2023-05-14T03:28:57.397Z,61.55
2023-05-14T03:29:57.416Z,59.62
2023-05-14T03:30:57.379Z,57.85
2023-05-14T03:31:57.403Z,58.17
2023-05-14T03:32:58.388Z,60.42
2023-05-14T03:33:57.342Z,62.20
2023-05-14T03:34:57.327Z,60.42
2023-05-14T03:35:57.321Z,64.45
2023-05-14T03:36:57.305Z,60.42
2023-05-14T03:37:57.317Z,59.94
2023-05-14T03:38:57.272Z,59.30
2023-05-14T03:39:57.254Z,61.39
2023-05-14T03:40:57.257Z,57.36
2023-05-14T03:41:57.268Z,60.91
2023-05-14T03:42:57.337Z,71.06
2023-05-14T03:43:57.224Z,65.26
2023-05-14T03:44:57.196Z,58.01
2023-05-14T03:45:57.188Z,62.36
2023-05-14T03:46:57.203Z,64.13
2023-05-14T03:47:57.267Z,62.68
2023-05-14T03:48:57.207Z,59.30
2023-05-14T03:49:57.163Z,55.43
2023-05-14T03:50:57.139Z,54.95
2023-05-14T03:51:57.149Z,56.07
2023-05-14T03:52:57.101Z,63.16
2023-05-14T03:53:57.127Z,55.11
2023-05-14T03:54:57.081Z,56.24
2023-05-14T03:55:57.068Z,59.14
2023-05-14T03:56:57.069Z,56.24
2023-05-14T03:57:57.064Z,55.11
2023-05-14T03:58:57.066Z,56.40
2023-05-14T03:59:57.045Z,56.56
2023-05-14T04:00:57.028Z,63.00
2023-05-14T04:01:57.107Z,66.39
2023-05-14T04:02:57.034Z,60.59
2023-05-14T04:03:57.139Z,68.16
2023-05-14T04:04:57.002Z,58.81
2023-05-14T04:05:56.961Z,59.30
2023-05-14T04:06:56.958Z,59.30
2023-05-14T04:07:56.962Z,53.82
2023-05-14T04:08:56.979Z,52.85
2023-05-14T04:09:56.917Z,53.50
2023-05-14T04:10:56.947Z,54.30
2023-05-14T04:11:56.890Z,58.01
2023-05-14T04:12:56.914Z,59.78
2023-05-14T04:13:56.882Z,61.39
2023-05-14T04:14:56.866Z,59.62
2023-05-14T04:15:56.879Z,57.85
2023-05-14T04:16:56.835Z,59.46
2023-05-14T04:17:56.875Z,57.69
2023-05-14T04:18:56.894Z,56.88
2023-05-14T04:19:56.809Z,55.11
2023-05-14T04:20:56.799Z,58.49
2023-05-14T04:21:57.761Z,54.95
2023-05-14T04:22:56.765Z,63.00
2023-05-14T04:23:56.751Z,63.65
2023-05-14T04:24:56.733Z,58.17
2023-05-14T04:25:56.729Z,57.04
2023-05-14T04:26:56.708Z,57.52
2023-05-14T04:27:56.707Z,67.35
2023-05-14T04:28:56.702Z,58.97
2023-05-14T04:29:56.697Z,56.88
2023-05-14T04:30:56.679Z,56.88
2023-05-14T04:31:56.673Z,57.69
2023-05-14T04:32:56.712Z,55.27
2023-05-14T04:33:56.718Z,56.88
2023-05-14T04:34:56.672Z,55.91
2023-05-14T04:35:56.617Z,64.94
2023-05-14T04:36:56.641Z,56.07
2023-05-14T04:37:56.595Z,60.10
2023-05-14T04:38:56.672Z,54.62
2023-05-14T04:39:56.568Z,53.66
2023-05-14T04:40:56.574Z,56.40
2023-05-14T04:41:56.551Z,56.24
2023-05-14T04:42:56.614Z,56.40
2023-05-14T04:43:56.793Z,56.88
2023-05-14T04:44:56.670Z,60.91
2023-05-14T04:45:56.742Z,55.91
2023-05-14T04:46:56.534Z,54.79
2023-05-14T04:47:56.602Z,53.98
2023-05-14T04:48:56.523Z,53.33
2023-05-14T04:49:56.501Z,54.79
2023-05-14T04:50:56.460Z,58.33
2023-05-14T04:51:56.514Z,56.56
2023-05-14T04:52:56.657Z,58.81
2023-05-14T04:53:56.534Z,58.33
2023-05-14T04:54:56.480Z,58.49
2023-05-14T04:55:56.469Z,56.88
2023-05-14T04:56:56.867Z,68.00
2023-05-14T04:57:56.441Z,54.95
2023-05-14T04:58:56.415Z,55.11
2023-05-14T04:59:56.352Z,62.68
2023-05-14T05:00:56.391Z,59.14
2023-05-14T05:01:56.380Z,56.40
2023-05-14T05:02:56.321Z,58.65
2023-05-14T05:03:56.343Z,54.30
2023-05-14T05:04:56.307Z,55.59
2023-05-14T05:05:56.637Z,56.72
2023-05-14T05:06:56.258Z,57.20
2023-05-14T05:07:56.292Z,53.33
2023-05-14T05:08:56.289Z,60.10
2023-05-14T05:09:56.257Z,60.75
2023-05-14T05:10:56.210Z,56.56
2023-05-14T05:11:56.217Z,57.85
2023-05-14T05:12:56.201Z,57.52
2023-05-14T05:13:56.236Z,55.43
2023-05-14T05:14:56.185Z,55.43
2023-05-14T05:15:56.225Z,54.95
2023-05-14T05:16:56.163Z,55.11
2023-05-14T05:17:56.159Z,55.27
2023-05-14T05:18:56.139Z,55.91
2023-05-14T05:19:56.145Z,56.24
2023-05-14T05:20:56.136Z,58.97
2023-05-14T05:21:56.245Z,61.55
2023-05-14T05:22:56.123Z,57.85
2023-05-14T05:23:57.069Z,58.49
2023-05-14T05:24:56.095Z,56.72
2023-05-14T05:25:56.057Z,58.65
2023-05-14T05:26:56.050Z,59.46
2023-05-14T05:27:56.089Z,56.88
2023-05-14T05:28:56.036Z,58.49
2023-05-14T05:29:55.996Z,62.84
2023-05-14T05:30:56.015Z,60.59
2023-05-14T05:31:56.066Z,59.62
2023-05-14T05:32:56.056Z,59.94
2023-05-14T05:33:55.957Z,63.16
2023-05-14T05:34:55.978Z,58.49
2023-05-14T05:35:55.952Z,61.71
2023-05-14T05:36:55.920Z,64.13
2023-05-14T05:37:55.891Z,64.13
2023-05-14T05:38:56.967Z,63.16
2023-05-14T05:39:55.892Z,60.75
2023-05-14T05:40:55.891Z,61.07
2023-05-14T05:41:55.856Z,62.36
2023-05-14T05:42:55.873Z,60.59
2023-05-14T05:43:55.847Z,59.14
2023-05-14T05:44:55.840Z,58.33
2023-05-14T05:45:55.854Z,59.94
2023-05-14T05:46:55.916Z,59.94
2023-05-14T05:47:56.009Z,66.06
2023-05-14T05:48:55.804Z,58.17
2023-05-14T05:49:55.819Z,58.81
2023-05-14T05:50:55.832Z,58.97
2023-05-14T05:51:56.490Z,59.62
2023-05-14T05:52:55.760Z,59.62
2023-05-14T05:53:55.744Z,57.36
2023-05-14T05:54:55.727Z,58.33
2023-05-14T05:55:55.710Z,55.59
2023-05-14T05:56:55.758Z,67.51
2023-05-14T05:57:55.677Z,61.87
2023-05-14T05:58:55.698Z,62.68
2023-05-14T05:59:55.672Z,61.55
2023-05-14T06:00:56.371Z,62.68
2023-05-14T06:01:55.673Z,58.65
2023-05-14T06:02:55.690Z,59.94
2023-05-14T06:03:55.644Z,59.46
2023-05-14T06:04:55.688Z,61.55
2023-05-14T06:05:55.623Z,62.52
2023-05-14T06:06:55.578Z,60.91
2023-05-14T06:07:55.636Z,68.64
2023-05-14T06:08:55.575Z,59.46
2023-05-14T06:09:55.546Z,61.23
2023-05-14T06:10:55.548Z,61.39
2023-05-14T06:11:55.539Z,62.36
2023-05-14T06:12:55.550Z,62.68
2023-05-14T06:13:55.505Z,62.20
2023-05-14T06:14:55.575Z,62.36
2023-05-14T06:15:55.479Z,63.00
2023-05-14T06:16:55.630Z,57.36
2023-05-14T06:17:55.515Z,62.36
2023-05-14T06:18:55.517Z,63.16
2023-05-14T06:19:55.471Z,61.71
2023-05-14T06:20:55.611Z,62.84
2023-05-14T06:21:55.633Z,63.00
2023-05-14T06:23:30.794Z,64.61
2023-05-14T06:23:55.654Z,63.97
2023-05-14T07:15:38.648Z,61.71
2023-05-14T07:16:38.830Z,61.87
2023-05-14T07:17:38.652Z,60.75
2023-05-14T07:18:38.621Z,64.61
2023-05-14T07:19:38.622Z,64.13
2023-05-14T07:20:38.586Z,62.68
2023-05-14T07:21:38.619Z,63.65
2023-05-14T07:22:38.585Z,65.10
2023-05-14T07:23:38.550Z,64.78
2023-05-14T07:24:38.573Z,65.58
2023-05-14T07:25:38.531Z,63.81
2023-05-14T07:26:38.555Z,63.33
2023-05-14T07:27:38.612Z,64.61
2023-05-14T07:28:38.699Z,61.71
2023-05-14T07:29:38.644Z,64.61
2023-05-14T07:31:14.510Z,63.81
2023-05-14T07:31:38.852Z,65.10
2023-05-14T07:32:38.577Z,63.81
2023-05-14T07:33:38.517Z,65.10
2023-05-14T07:34:38.767Z,67.84
2023-05-14T07:35:38.487Z,63.00
2023-05-14T07:36:38.554Z,67.03
2023-05-14T07:37:39.153Z,63.00
2023-05-14T07:48:57.810Z,60.75
2023-05-14T07:49:57.911Z,60.26
2023-05-14T07:50:57.726Z,61.39
2023-05-14T07:51:57.677Z,60.91
2023-05-14T07:52:57.843Z,58.49
2023-05-14T07:53:57.690Z,58.49
2023-05-14T07:54:57.672Z,59.62
2023-05-14T07:55:57.633Z,60.26
2023-05-14T07:56:57.645Z,60.75
2023-05-14T08:06:39.494Z,60.75
2023-05-14T08:07:39.349Z,62.04
2023-05-14T08:08:39.298Z,58.81
2023-05-14T08:09:39.291Z,61.23
2023-05-14T08:10:39.389Z,59.46
2023-05-14T08:11:39.314Z,58.33
2023-05-14T08:12:39.296Z,59.30
2023-05-14T08:13:39.248Z,62.52
2023-05-14T08:14:39.289Z,61.23
2023-05-14T08:15:39.336Z,58.81
2023-05-14T08:16:40.627Z,58.49
2023-05-14T08:17:40.371Z,59.94
2023-05-14T08:18:40.368Z,58.33
2023-05-14T08:19:40.313Z,61.87
2023-05-14T08:20:40.283Z,61.55
2023-05-14T08:21:40.326Z,60.59
2023-05-14T08:22:40.266Z,60.91
2023-05-14T08:23:40.266Z,60.26
2023-05-14T08:24:40.239Z,59.94
2023-05-14T08:25:40.228Z,59.94
2023-05-14T08:26:40.248Z,64.61
2023-05-14T08:27:40.188Z,59.78
2023-05-14T08:28:40.195Z,60.75
2023-05-14T08:29:40.168Z,59.30
2023-05-14T08:30:40.164Z,63.81
2023-05-14T08:31:40.160Z,66.71
2023-05-14T08:32:40.195Z,61.71
2023-05-14T08:33:40.124Z,62.84
2023-05-14T08:34:40.430Z,61.23
2023-05-14T08:35:40.110Z,62.68
2023-05-14T08:36:40.081Z,63.00
2023-05-14T08:37:40.128Z,60.10
2023-05-14T08:38:40.056Z,57.36
2023-05-14T08:39:40.059Z,60.10
2023-05-14T08:40:40.049Z,62.68
2023-05-14T08:41:40.010Z,58.17
2023-05-14T08:42:40.031Z,62.68
2023-05-14T08:43:40.014Z,61.71
2023-05-14T08:44:40.009Z,62.36
2023-05-14T08:45:39.990Z,58.81
2023-05-14T08:46:39.969Z,58.81
2023-05-14T08:47:39.998Z,58.65
2023-05-14T08:48:39.977Z,60.91
2023-05-14T08:49:39.939Z,61.23
2023-05-14T08:50:39.916Z,62.36
2023-05-14T08:51:39.885Z,61.23
2023-05-14T08:52:39.903Z,64.94
2023-05-14T08:53:40.010Z,63.65
2023-05-14T08:54:39.859Z,63.97
2023-05-14T08:55:39.873Z,59.30
2023-05-14T08:56:39.830Z,59.30
2023-05-14T08:57:39.822Z,56.40
2023-05-14T08:58:39.821Z,55.27
2023-05-14T08:59:39.856Z,56.24
2023-05-14T09:00:39.777Z,56.40
2023-05-14T09:01:39.818Z,57.36
2023-05-14T09:02:39.851Z,58.81
2023-05-14T09:03:39.821Z,57.36
2023-05-14T09:04:39.775Z,59.78
2023-05-14T09:05:39.712Z,60.59
2023-05-14T09:06:39.718Z,63.00
2023-05-14T09:07:39.682Z,59.62
2023-05-14T09:08:39.789Z,58.01
2023-05-14T09:09:39.726Z,57.04
2023-05-14T09:10:39.680Z,56.07
2023-05-14T09:11:39.649Z,55.59
2023-05-14T09:12:39.636Z,61.07
2023-05-14T09:13:39.611Z,61.87
2023-05-14T09:14:39.595Z,57.36
2023-05-14T09:15:39.622Z,56.07
2023-05-14T09:16:39.614Z,58.49
2023-05-14T09:17:39.567Z,58.65
2023-05-14T09:18:39.587Z,58.01
2023-05-14T09:19:39.551Z,58.97
2023-05-14T09:20:39.572Z,57.36
2023-05-14T09:21:39.565Z,58.33
2023-05-14T09:22:39.504Z,61.23
2023-05-14T09:23:39.496Z,60.75
2023-05-14T09:24:39.484Z,62.20
2023-05-14T09:25:39.547Z,58.97
2023-05-14T09:26:39.470Z,70.09
2023-05-14T09:27:39.437Z,67.84
2023-05-14T09:28:39.424Z,63.16
2023-05-14T09:29:39.436Z,59.46
2023-05-14T09:30:39.407Z,67.84
2023-05-14T09:31:39.495Z,61.07
2023-05-14T09:32:39.476Z,60.91
2023-05-14T09:33:39.384Z,61.87
2023-05-14T09:34:39.358Z,60.10
2023-05-14T09:35:39.342Z,60.75
2023-05-14T09:36:39.380Z,59.46
2023-05-14T09:37:39.314Z,60.59
2023-05-14T09:38:39.316Z,60.26
2023-05-14T09:39:39.298Z,63.00
2023-05-14T09:40:39.276Z,56.72
2023-05-14T09:41:39.263Z,57.36
2023-05-14T09:42:39.274Z,57.85
2023-05-14T09:43:39.252Z,61.87
2023-05-14T09:44:39.240Z,62.52
2023-05-14T09:45:39.206Z,61.71
2023-05-14T09:46:39.213Z,63.65
2023-05-14T09:47:39.271Z,65.90
2023-05-14T09:48:39.727Z,63.97
2023-05-14T09:49:39.173Z,62.84
2023-05-14T09:50:39.172Z,62.20
2023-05-14T09:51:39.134Z,61.23
2023-05-14T09:52:39.151Z,61.87
2023-05-14T09:53:39.121Z,58.65
2023-05-14T09:54:39.089Z,59.62
2023-05-14T09:55:39.098Z,73.80
2023-05-14T09:56:39.081Z,60.91
2023-05-14T09:57:39.496Z,60.42
2023-05-14T09:58:39.132Z,62.04
2023-05-14T09:59:39.051Z,58.81
2023-05-14T10:00:39.028Z,57.20
2023-05-14T10:01:39.316Z,58.81
2023-05-14T10:02:39.091Z,58.81
2023-05-14T10:03:39.049Z,61.87
2023-05-14T10:04:39.067Z,58.65
2023-05-14T10:05:38.979Z,58.01
2023-05-14T10:06:38.951Z,57.85
2023-05-14T10:07:38.942Z,67.68
2023-05-14T10:08:38.943Z,61.39
2023-05-14T10:09:38.954Z,57.85
2023-05-14T10:10:38.922Z,58.17
2023-05-14T10:11:38.964Z,59.14
2023-05-14T10:12:38.871Z,57.04
2023-05-14T10:13:38.874Z,58.01
2023-05-14T10:14:39.133Z,56.56
2023-05-14T10:15:38.894Z,58.01
2023-05-14T10:16:38.880Z,56.24
2023-05-14T10:17:38.938Z,58.65
2023-05-14T10:18:38.848Z,58.33
2023-05-14T10:19:38.814Z,58.65
2023-05-14T10:20:38.856Z,60.42
2023-05-14T10:21:38.779Z,58.49
2023-05-14T10:22:38.765Z,57.36
2023-05-14T10:23:38.739Z,57.85
2023-05-14T10:24:38.803Z,56.56
2023-05-14T10:25:38.756Z,60.10
2023-05-14T10:26:38.738Z,62.36
2023-05-14T10:27:38.751Z,56.07
2023-05-14T10:28:38.682Z,55.91
2023-05-14T10:29:38.710Z,59.94
2023-05-14T10:30:38.731Z,58.97
2023-05-14T10:31:38.819Z,60.75
2023-05-14T10:32:38.708Z,63.49
2023-05-14T10:33:38.674Z,60.91
2023-05-14T10:34:38.734Z,63.81
2023-05-14T10:35:38.624Z,64.61
2023-05-14T10:36:38.634Z,62.84
2023-05-14T10:37:38.808Z,61.87
2023-05-14T10:38:38.631Z,59.62
2023-05-14T10:39:38.580Z,58.33
2023-05-14T10:40:38.612Z,62.84
2023-05-14T10:41:38.564Z,63.16
2023-05-14T10:42:38.727Z,61.71
2023-05-14T10:43:39.367Z,63.81
2023-05-14T10:44:38.561Z,63.65
2023-05-14T10:45:38.541Z,61.87
2023-05-14T10:46:38.592Z,58.17
2023-05-14T10:47:38.569Z,56.24
2023-05-14T10:48:38.489Z,59.30
2023-05-14T10:49:43.538Z,59.14
2023-05-14T10:50:38.495Z,60.75
2023-05-14T10:51:38.611Z,58.33
2023-05-14T10:52:39.204Z,61.39
2023-05-14T10:53:38.432Z,62.36
2023-05-14T10:54:38.459Z,63.65
2023-05-14T10:55:38.506Z,64.29
2023-05-14T10:56:38.465Z,67.51
2023-05-14T10:57:38.431Z,63.97
2023-05-14T10:58:38.394Z,65.74
2023-05-14T10:59:38.494Z,63.16
2023-05-14T11:00:38.384Z,67.51
2023-05-14T11:01:38.436Z,67.03
2023-05-14T11:02:38.418Z,69.13
2023-05-14T11:03:38.366Z,68.64
2023-05-14T11:04:38.326Z,65.58
2023-05-14T11:05:38.296Z,68.96
2023-05-14T11:06:38.306Z,67.51
2023-05-14T11:07:38.309Z,66.55
2023-05-14T11:08:38.277Z,62.84
2023-05-14T11:09:38.578Z,58.01
2023-05-14T11:10:39.172Z,57.69
2023-05-14T11:11:38.220Z,55.75
2023-05-14T11:12:38.283Z,58.49
2023-05-14T11:13:38.230Z,58.33
2023-05-14T11:14:38.463Z,60.10
2023-05-14T11:15:39.283Z,58.33
2023-05-14T11:16:38.179Z,61.55
2023-05-14T11:17:38.371Z,59.78
2023-05-14T11:18:38.207Z,58.01
2023-05-14T11:19:38.180Z,60.75
2023-05-14T11:20:38.120Z,59.14
2023-05-14T11:21:38.263Z,59.30
2023-05-14T11:22:38.164Z,59.46
2023-05-14T11:23:38.134Z,62.04
2023-05-14T11:24:38.067Z,62.36
2023-05-14T11:25:38.114Z,66.39
2023-05-14T11:26:38.026Z,65.26
2023-05-14T11:27:38.194Z,60.75
2023-05-14T11:28:38.110Z,63.97
2023-05-14T11:29:38.028Z,69.13
2023-05-14T11:30:38.011Z,67.51
2023-05-14T11:31:38.122Z,68.96
2023-05-14T11:32:38.032Z,68.64
2023-05-14T11:33:38.050Z,70.58
2023-05-14T11:34:37.970Z,72.03
2023-05-14T11:35:37.981Z,63.97
2023-05-14T11:36:37.950Z,63.81
2023-05-14T11:37:37.889Z,63.81
2023-05-14T11:38:37.903Z,73.96
2023-05-14T11:39:38.000Z,74.60
2023-05-14T11:40:37.844Z,73.15
2023-05-14T11:41:37.830Z,70.09
2023-05-14T11:42:37.813Z,70.42
2023-05-14T11:43:37.858Z,61.39
2023-05-14T11:44:37.812Z,62.84
2023-05-14T11:45:37.802Z,61.23
2023-05-14T11:46:37.834Z,63.65
2023-05-14T11:47:37.864Z,64.45
2023-05-14T11:48:37.781Z,65.10
2023-05-14T11:49:37.749Z,65.26
2023-05-14T11:50:37.716Z,64.45
2023-05-14T11:51:37.714Z,62.20
2023-05-14T11:52:37.733Z,59.78
2023-05-14T11:53:37.696Z,62.36
2023-05-14T11:54:37.671Z,63.33
2023-05-14T11:55:37.770Z,63.97
2023-05-14T11:56:37.660Z,67.51
2023-05-14T11:57:37.633Z,64.78
2023-05-14T11:58:37.697Z,65.58
2023-05-14T11:59:37.619Z,66.71
2023-05-14T12:00:37.677Z,65.58
2023-05-14T12:01:37.623Z,66.71
2023-05-14T12:02:37.706Z,66.55
2023-05-14T12:03:37.820Z,67.51
2023-05-14T12:04:37.619Z,65.10
2023-05-14T12:05:37.605Z,67.19
2023-05-14T12:06:37.646Z,67.35
2023-05-14T12:07:37.539Z,67.51
2023-05-14T12:08:37.528Z,66.71
2023-05-14T12:09:37.532Z,66.55
2023-05-14T12:10:37.485Z,68.32
2023-05-14T12:11:37.518Z,67.19
2023-05-14T12:12:37.544Z,68.00
2023-05-14T12:13:37.464Z,64.61
2023-05-14T12:14:37.478Z,66.55
2023-05-14T12:15:37.488Z,63.65
2023-05-14T12:16:38.500Z,66.06
2023-05-14T12:17:38.481Z,65.10
2023-05-14T12:18:37.509Z,59.78
2023-05-14T12:19:37.406Z,58.81
2023-05-14T12:20:37.368Z,63.16
2023-05-14T12:21:37.355Z,62.20
2023-05-14T12:22:37.368Z,61.23
2023-05-14T12:23:37.320Z,61.07
2023-05-14T12:24:37.313Z,67.51
2023-05-14T12:25:37.372Z,63.49
2023-05-14T12:26:37.430Z,59.62
2023-05-14T12:27:37.584Z,58.33
2023-05-14T12:28:38.530Z,62.36
2023-05-14T12:29:37.384Z,60.26
2023-05-14T12:30:37.285Z,68.96
2023-05-14T12:31:37.384Z,69.29
2023-05-14T12:32:37.456Z,67.03
2023-05-14T12:33:37.321Z,74.93
2023-05-14T12:34:37.678Z,72.35
2023-05-14T13:30:18.701Z,64.61
2023-05-14T13:31:18.460Z,63.97
2023-05-14T13:32:17.827Z,62.36
2023-05-14T13:33:18.293Z,71.38
2023-05-14T13:34:18.062Z,61.55
2023-05-14T13:35:17.897Z,63.00
2023-05-14T13:36:17.970Z,63.49
2023-05-14T13:37:19.127Z,64.78
2023-05-14T13:38:19.426Z,66.23
2023-05-14T13:39:18.155Z,67.35
2023-05-14T13:40:18.708Z,63.00
2023-05-14T13:41:18.165Z,62.20
2023-05-14T13:42:18.844Z,62.04
2023-05-14T13:43:18.190Z,61.87
2023-05-14T13:44:18.160Z,63.49
2023-05-14T13:45:18.065Z,64.29
2023-05-14T13:46:17.929Z,62.36
2023-05-14T13:47:18.396Z,62.36
2023-05-14T13:48:17.831Z,64.94
2023-05-14T13:49:17.731Z,63.81
2023-05-14T13:50:17.854Z,64.45
2023-05-14T13:51:17.656Z,62.20
2023-05-14T13:52:17.666Z,64.61
2023-05-14T13:53:17.569Z,63.97
2023-05-14T13:54:17.595Z,63.97
2023-05-14T13:55:17.587Z,61.23
2023-05-14T13:56:17.551Z,60.59
2023-05-14T13:57:18.606Z,61.87
2023-05-14T13:58:17.504Z,61.55
2023-05-14T13:59:17.525Z,61.55
2023-05-14T14:00:17.625Z,61.39
2023-05-14T14:01:17.826Z,60.42
2023-05-14T14:02:17.486Z,60.75
2023-05-14T14:03:17.491Z,61.87
2023-05-14T14:04:17.437Z,60.75
2023-05-14T14:05:18.097Z,59.46
2023-05-14T14:06:17.813Z,59.46
2023-05-14T14:07:17.487Z,59.30
2023-05-14T14:08:23.537Z,64.78
2023-05-14T14:09:18.596Z,59.78
2023-05-14T14:10:17.519Z,59.94
2023-05-14T14:11:17.489Z,60.10
2023-05-14T14:12:17.838Z,63.49
2023-05-14T14:13:17.471Z,63.33
2023-05-14T15:42:01.104Z,58.65
2023-05-14T15:43:01.181Z,60.10
2023-05-14T15:44:01.038Z,58.65
2023-05-14T15:45:00.967Z,57.36
2023-05-14T15:46:00.984Z,58.65
2023-05-14T15:47:00.961Z,59.78
2023-05-14T15:48:00.980Z,59.94
2023-05-14T15:49:01.373Z,58.33
2023-05-14T15:50:00.989Z,59.94
2023-05-14T15:51:00.896Z,64.78
2023-05-14T18:26:24.907Z,63.33
2023-05-14T18:27:25.205Z,63.49
2023-05-14T18:28:24.755Z,61.87
2023-05-14T18:29:25.750Z,63.00
2023-05-14T18:30:24.773Z,63.65
2023-05-14T18:31:24.720Z,62.20
2023-05-14T18:32:24.719Z,58.49
2023-05-14T18:33:24.706Z,59.30
2023-05-14T18:34:25.670Z,60.75
2023-05-14T18:35:24.917Z,57.36
2023-05-14T18:36:24.675Z,61.07
2023-05-14T18:37:24.672Z,60.42
2023-05-14T18:38:24.651Z,58.65
2023-05-14T18:39:24.652Z,59.14
2023-05-14T18:40:24.689Z,57.85
2023-05-14T18:41:24.699Z,56.88
2023-05-14T18:42:24.586Z,58.65
2023-05-14T18:43:24.580Z,59.62
2023-05-14T18:44:24.586Z,57.85
2023-05-14T18:45:24.835Z,57.36
2023-05-14T18:46:24.581Z,60.59
2023-05-14T18:47:24.581Z,57.85
2023-05-14T18:48:24.535Z,58.01
2023-05-14T18:49:24.525Z,59.46
2023-05-14T18:50:24.537Z,62.36
2023-05-14T18:51:24.518Z,61.87
2023-05-14T18:52:24.482Z,66.06
2023-05-14T18:53:25.466Z,61.71
2023-05-14T18:54:24.482Z,60.91
2023-05-14T18:55:24.613Z,58.17
2023-05-14T18:56:24.459Z,58.33
2023-05-14T18:57:24.447Z,57.85
2023-05-14T18:58:41.418Z,59.14
2023-05-14T18:59:24.482Z,60.26